LFBE/EGC METAR and TAF weather

Enter ICAO airport designator
Station Type Date Time Source
LFBE METAR 2019/12/13 04:30 UTC NOAA

LFBE 130430Z AUTO 27024KT 9999 -RA OVC015/// ///TCU 13/12 Q0992


Station Type Date Time Source
LFBE Decoded METAR 2019/12/13 04:30 UTC NOAA

Bergerac, France (LFBE) 44-49N 000-31E 52M
Dec 12, 2019 - 11:30 PM EST / 2019.12.13 0430 UTC
Wind: from the W (270 degrees) at 28 MPH (24 KT):0
Visibility: greater than 7 mile(s):0
Sky conditions: overcast
Weather: light rain; Towering cumulus clouds observed
Temperature: 55 F (13 C)
Dew Point: 53 F (12 C)
Relative Humidity: 93%
Pressure (altimeter): 29.29 in. Hg (0992 hPa)
ob: LFBE 130430Z AUTO 27024KT 9999 -RA OVC015/// ///TCU 13/12 Q0992
cycle: 4

Station Type Date Time Source
LFBE TAF 2019/12/13 12:51 UTC NOAA

TAF LFBE 131100Z 1312/1412 29020G35KT 9999 BKN040
TEMPO 1312/1317 4000 SHRA BKN025TCU
BECMG 1316/1318 27010KT
TEMPO 1317/1412 3000 RA OVC005
BECMG 1319/1321 27020G35KT
BECMG 1404/1406 27010G25KT

Example: see airport list